Portada
METAR-TAF:

METAR-TAF

Aeropuertos :

Isla de Margarita, Venezuela

Aeropuerto Internacional del Caribe Santiago Mariño

latitud: 10-55N, longitud: 063-59W, altitud: 23 m

Observación

El informe se hizo hace 2 horas y 37 minutos, a las 21:00 UTC
Temperatura 30°C
Humedad 79%
Presión 1008 hPa
Visibilidad 10 km o más
Escasas nubes a una altura de 1000 ft

METAR: SVMG 202100Z /////KT 9999 FEW010 30/26 Q1008 NOSIG

Hora: 19:37 (23:37 UTC)

Pronóstico

El informe se hizo hace 7 horas y 37 minutos, a las 16:00 UTC
Pronóstico válido del 20 a las 18 UTC al 21 a las 18 UTC
Viento 10 kt del noreste
Visibilidad 10 km o más
Escasas nubes a una altura de 1000 ft
Evolucionando progresivamente
del 20 a las 18 UTC al 20 a las 22 UTC
Viento 5 kt del este-noreste
Escasas nubes a una altura de 2000 ft
Nubes dispersas a una altura de 8000 ft

TAF: SVMG 201600Z 2018/2118 05010KT 9999 FEW010 TX33/19Z TN24/09Z BECMG 2018/2022 07005KT FEW020 SCT080

Observaciones y pronósticos meteorológicos de más de 4000 aeropuertos (mensajes METAR y TAF).

Los puntos amarillos y rojos representan las estaciones disponibles.

Ponga el ratón en el punto deseado para ver el nombre de la estación.

Haga clic para ver las observaciones y los pronósticos meteorológicos.

Para cambiar el mapa : haga clic en los botones verdes con una cruz de color negro para hacer un zoom, en el botón verde con un guión para alejar o en las flechas verdes para mapas adyacentes.


METAR-TAF: